createdAt,value
2023-04-23T00:02:03.219Z,99794.13
2023-04-23T00:04:37.990Z,99795.00
2023-04-23T00:07:05.885Z,99795.00
2023-04-23T00:09:33.506Z,99790.16
2023-04-23T00:12:02.059Z,99790.91
2023-04-23T00:14:29.400Z,99784.59
2023-04-23T00:16:56.680Z,99781.81
2023-04-23T00:19:23.483Z,99785.09
2023-04-23T00:21:50.259Z,99784.81
2023-04-23T00:24:17.088Z,99783.34
2023-04-23T00:26:43.905Z,99777.09
2023-04-23T00:29:11.074Z,99777.56
2023-04-23T00:31:37.832Z,99778.56
2023-04-23T00:34:04.578Z,99780.06
2023-04-23T00:36:31.322Z,99774.28
2023-04-23T00:38:58.020Z,99782.84
2023-04-23T00:41:27.313Z,99780.41
2023-04-23T00:43:58.393Z,99781.06
2023-04-23T00:46:28.613Z,99784.59
2023-04-23T00:48:55.708Z,99769.19
2023-04-23T00:51:23.557Z,99775.13
2023-04-23T00:53:51.010Z,99770.97
2023-04-23T00:56:18.654Z,99774.09
2023-04-23T00:58:46.114Z,99771.78
2023-04-23T01:01:13.932Z,99759.19
2023-04-23T01:03:44.401Z,99756.47
2023-04-23T01:06:11.217Z,99759.00
2023-04-23T01:08:41.008Z,99757.50
2023-04-23T01:11:07.770Z,99755.00
2023-04-23T01:13:35.226Z,99762.66
2023-04-23T01:16:02.569Z,99754.53
2023-04-23T01:18:30.065Z,99763.50
2023-04-23T01:20:56.756Z,99757.81
2023-04-23T01:23:23.707Z,99766.16
2023-04-23T01:25:51.088Z,99765.56
2023-04-23T01:28:22.072Z,99761.00
2023-04-23T01:30:51.098Z,99761.81
2023-04-23T01:33:19.404Z,99754.28
2023-04-23T01:35:49.309Z,99757.56
2023-04-23T01:38:23.494Z,99768.56
2023-04-23T01:40:50.225Z,99764.13
2023-04-23T01:43:20.996Z,99757.41
2023-04-23T01:45:47.863Z,99756.97
2023-04-23T01:48:17.250Z,99760.25
2023-04-23T01:50:44.309Z,99751.47
2023-04-23T01:53:11.182Z,99756.44
2023-04-23T01:55:47.594Z,99751.41
2023-04-23T01:58:14.759Z,99750.56
2023-04-23T02:00:42.003Z,99746.34
2023-04-23T02:03:09.149Z,99749.84
2023-04-23T02:05:37.008Z,99748.53
2023-04-23T02:08:04.311Z,99745.34
2023-04-23T02:10:31.775Z,99749.38
2023-04-23T02:13:01.474Z,99746.66
2023-04-23T02:15:28.924Z,99752.72
2023-04-23T02:17:57.154Z,99745.81
2023-04-23T02:20:23.983Z,99747.69
2023-04-23T02:22:51.090Z,99741.63
2023-04-23T02:25:23.056Z,99738.06
2023-04-23T02:27:50.543Z,99744.34
2023-04-23T02:30:19.249Z,99746.56
2023-04-23T02:32:45.990Z,99741.75
2023-04-23T02:35:12.727Z,99749.47
2023-04-23T02:37:43.408Z,99751.34
2023-04-23T02:40:11.284Z,99764.50
2023-04-23T02:42:38.177Z,99772.53
2023-04-23T02:45:05.907Z,99776.78
2023-04-23T02:47:32.675Z,99780.16
2023-04-23T02:49:59.391Z,99774.06
2023-04-23T02:52:26.065Z,99782.34
2023-04-23T02:54:53.016Z,99778.59
2023-04-23T02:57:23.539Z,99785.91
2023-04-23T02:59:53.136Z,99779.34
2023-04-23T03:02:23.922Z,99784.69
2023-04-23T03:04:51.379Z,99784.19
2023-04-23T03:07:18.120Z,99796.75
2023-04-23T03:09:44.847Z,99794.75
2023-04-23T03:12:11.680Z,99799.84
2023-04-23T03:14:38.424Z,99798.03
2023-04-23T03:17:06.434Z,99798.44
2023-04-23T03:19:36.166Z,99795.47
2023-04-23T03:22:05.640Z,99803.94
2023-04-23T03:24:35.359Z,99801.59
2023-04-23T03:27:02.219Z,99807.88
2023-04-23T03:29:29.105Z,99799.84
2023-04-23T03:31:56.542Z,99805.06
2023-04-23T03:34:23.235Z,99808.81
2023-04-23T03:36:51.057Z,99813.72
2023-04-23T03:39:17.928Z,99820.50
2023-04-23T03:41:44.945Z,99811.91
2023-04-23T03:44:11.645Z,99817.50
2023-04-23T03:46:38.446Z,99819.84
2023-04-23T03:49:05.358Z,99817.19
2023-04-23T03:51:32.431Z,99827.81
2023-04-23T03:53:59.161Z,99818.06
2023-04-23T03:56:27.141Z,99824.78
2023-04-23T03:58:56.814Z,99821.41
2023-04-23T04:01:23.568Z,99818.06
2023-04-23T04:03:50.328Z,99825.47
2023-04-23T04:06:17.113Z,99812.16
2023-04-23T04:08:46.225Z,99813.84
2023-04-23T04:11:12.877Z,99822.94
2023-04-23T04:13:41.947Z,99815.88
2023-04-23T04:16:08.961Z,99823.63
2023-04-23T04:18:35.861Z,99829.16
2023-04-23T04:21:02.604Z,99826.66
2023-04-23T04:23:32.286Z,99833.72
2023-04-23T04:25:59.889Z,99833.03
2023-04-23T04:28:26.677Z,99839.25
2023-04-23T04:30:54.967Z,99840.63
2023-04-23T04:33:21.750Z,99841.28
2023-04-23T04:35:51.008Z,99848.34
2023-04-23T04:38:18.324Z,99846.47
2023-04-23T04:40:45.752Z,99847.66
2023-04-23T04:43:12.388Z,99844.47
2023-04-23T04:45:39.081Z,99846.47
2023-04-23T04:48:06.043Z,99853.50
2023-04-23T04:50:32.753Z,99849.31
2023-04-23T04:52:59.688Z,99855.38
2023-04-23T04:55:27.119Z,99855.06
2023-04-23T04:57:56.915Z,99839.91
2023-04-23T05:00:29.972Z,99855.88
2023-04-23T05:03:01.057Z,99853.34
2023-04-23T05:05:28.496Z,99862.59
2023-04-23T05:08:01.111Z,99865.63
2023-04-23T05:10:29.506Z,99868.97
2023-04-23T05:13:00.607Z,99867.81
2023-04-23T05:15:27.705Z,99874.00
2023-04-23T05:17:57.347Z,99874.16
2023-04-23T05:20:27.329Z,99872.97
2023-04-23T05:22:59.413Z,99876.72
2023-04-23T05:25:26.134Z,99872.16
2023-04-23T05:27:53.386Z,99879.59
2023-04-23T05:30:20.227Z,99878.56
2023-04-23T05:32:47.184Z,99880.75
2023-04-23T05:35:13.894Z,99888.50
2023-04-23T05:37:41.558Z,99893.19
2023-04-23T05:48:13.996Z,99907.94
2023-04-23T05:53:22.813Z,99920.19
2023-04-23T05:55:49.667Z,99918.03
2023-04-23T06:00:59.842Z,99910.81
2023-04-23T06:03:30.367Z,99919.28
2023-04-23T06:05:57.936Z,99917.59
2023-04-23T06:08:25.428Z,99910.91
2023-04-23T06:29:43.921Z,99929.34
2023-04-23T06:32:10.860Z,99925.97
2023-04-23T06:34:43.979Z,99930.03
2023-04-23T06:37:19.102Z,99923.94
2023-04-23T06:39:46.075Z,99921.25
2023-04-23T06:47:42.450Z,99921.69
2023-04-23T06:50:09.485Z,99923.66
2023-04-23T06:52:36.457Z,99926.78
2023-04-23T06:55:03.975Z,99935.84
2023-04-23T06:57:30.687Z,99938.34
2023-04-23T06:59:57.447Z,99940.72
2023-04-23T07:02:24.356Z,99939.03
2023-04-23T07:04:51.335Z,99931.88
2023-04-23T07:07:18.271Z,99933.06
2023-04-23T07:09:44.945Z,99938.09
2023-04-23T07:12:11.796Z,99942.28
2023-04-23T07:14:38.638Z,99941.78
2023-04-23T07:17:05.675Z,99931.19
2023-04-23T07:19:32.448Z,99931.75
2023-04-23T07:21:59.185Z,99937.13
2023-04-23T07:24:26.919Z,99935.13
2023-04-23T07:26:56.567Z,99932.25
2023-04-23T07:29:23.352Z,99930.91
2023-04-23T07:31:51.313Z,99928.06
2023-04-23T07:34:17.989Z,99932.72
2023-04-23T07:36:44.811Z,99930.38
2023-04-23T07:39:11.542Z,99931.88
2023-04-23T07:41:38.578Z,99928.19
2023-04-23T07:44:05.638Z,99941.59
2023-04-23T07:54:35.536Z,99945.28
2023-04-23T07:57:03.005Z,99941.78
2023-04-23T07:59:30.443Z,99943.69
2023-04-23T08:01:57.292Z,99940.81
2023-04-23T08:23:20.310Z,99950.75
2023-04-23T08:25:47.169Z,99948.56
2023-04-23T08:28:13.799Z,99938.00
2023-04-23T08:30:49.473Z,99939.72
2023-04-23T08:33:19.454Z,99944.81
2023-04-23T08:35:47.005Z,99939.38
2023-04-23T08:38:13.741Z,99941.84
2023-04-23T08:40:42.855Z,99932.31
2023-04-23T08:43:19.765Z,99945.16
2023-04-23T08:45:49.432Z,99936.13
2023-04-23T08:48:16.769Z,99940.97
2023-04-23T08:50:48.241Z,99931.06
2023-04-23T08:53:25.554Z,99945.63
2023-04-23T08:55:57.348Z,99945.25
2023-04-23T08:58:26.040Z,99946.13
2023-04-23T09:00:58.049Z,99944.44
2023-04-23T09:03:31.712Z,99948.78
2023-04-23T09:05:59.041Z,99948.66
2023-04-23T09:08:26.308Z,99947.19
2023-04-23T09:11:00.880Z,99952.09
2023-04-23T09:13:33.627Z,99949.66
2023-04-23T09:16:00.345Z,99943.91
2023-04-23T09:18:27.064Z,99951.28
2023-04-23T09:20:57.412Z,99949.63
2023-04-23T09:23:24.044Z,99946.34
2023-04-23T09:25:50.793Z,99942.25
2023-04-23T09:28:17.885Z,99943.16
2023-04-23T09:30:46.225Z,99947.06
2023-04-23T09:33:16.361Z,99948.69
2023-04-23T09:35:43.589Z,99945.88
2023-04-23T09:38:10.698Z,99943.88
2023-04-23T09:40:38.693Z,99934.97
2023-04-23T09:43:10.124Z,99934.13
2023-04-23T09:45:36.941Z,99940.06
2023-04-23T09:48:04.522Z,99937.16
2023-04-23T09:50:37.060Z,99942.66
2023-04-23T09:53:06.256Z,99939.81
2023-04-23T09:55:41.757Z,99941.59
2023-04-23T09:58:17.045Z,99946.16
2023-04-23T10:00:43.822Z,99941.81
2023-04-23T10:03:11.947Z,99939.06
2023-04-23T10:05:59.691Z,99937.66
2023-04-23T10:08:28.916Z,99933.91
2023-04-23T10:11:13.762Z,99938.03
2023-04-23T10:13:45.603Z,99936.25
2023-04-23T10:16:22.188Z,99935.44
2023-04-23T10:18:53.782Z,99935.06
2023-04-23T10:21:36.640Z,99938.81
2023-04-23T10:24:14.859Z,99935.44
2023-04-23T10:26:51.824Z,99926.16
2023-04-23T10:29:26.990Z,99932.13
2023-04-23T10:32:00.796Z,99931.06
2023-04-23T10:34:30.846Z,99932.88
2023-04-23T10:37:02.933Z,99941.31
2023-04-23T10:39:42.963Z,99935.63
2023-04-23T10:42:13.507Z,99942.41
2023-04-23T10:47:17.168Z,99946.50
2023-04-23T10:49:48.654Z,99943.63
2023-04-23T10:52:22.219Z,99935.66
2023-04-23T10:55:00.018Z,99931.38
2023-04-23T10:57:27.038Z,99937.16
2023-04-23T10:59:58.764Z,99929.81
2023-04-23T11:02:26.564Z,99928.78
2023-04-23T11:04:59.102Z,99917.94
2023-04-23T11:07:41.294Z,99920.94
2023-04-23T11:10:18.162Z,99917.81
2023-04-23T11:12:45.009Z,99920.34
2023-04-23T11:15:16.631Z,99912.91
2023-04-23T11:17:49.125Z,99908.28
2023-04-23T11:20:22.408Z,99926.84
2023-04-23T11:22:56.524Z,99913.47
2023-04-23T11:25:28.685Z,99911.34
2023-04-23T11:28:03.260Z,99916.19
2023-04-23T11:30:30.964Z,99917.53
2023-04-23T11:33:01.365Z,99920.91
2023-04-23T11:35:29.445Z,99916.44
2023-04-23T11:37:56.989Z,99918.41
2023-04-23T11:40:24.716Z,99918.56
2023-04-23T11:42:57.498Z,99910.50
2023-04-23T11:45:28.079Z,99912.94
2023-04-23T11:47:58.365Z,99920.94
2023-04-23T11:50:33.359Z,99916.66
2023-04-23T11:53:11.306Z,99914.69
2023-04-23T11:55:38.842Z,99913.53
2023-04-23T11:58:05.775Z,99921.94
2023-04-23T12:00:32.459Z,99910.06
2023-04-23T12:03:06.448Z,99912.19
2023-04-23T12:05:45.754Z,99911.69
2023-04-23T12:08:21.076Z,99914.16
2023-04-23T12:11:06.187Z,99919.72
2023-04-23T12:13:34.184Z,99917.88
2023-04-23T12:16:09.154Z,99917.47
2023-04-23T12:18:44.258Z,99923.56
2023-04-23T12:21:13.664Z,99925.00
2023-04-23T12:23:47.268Z,99928.25
2023-04-23T12:26:16.758Z,99926.91
2023-04-23T12:29:01.755Z,99934.63
2023-04-23T12:31:30.232Z,99921.06
2023-04-23T12:34:10.004Z,99919.03
2023-04-23T12:36:50.041Z,99915.50
2023-04-23T12:39:34.368Z,99914.06
2023-04-23T12:42:06.807Z,99904.72
2023-04-23T12:44:43.171Z,99901.19
2023-04-23T12:47:11.625Z,99902.53
2023-04-23T12:49:43.215Z,99908.81
2023-04-23T12:52:12.890Z,99898.44
2023-04-23T12:54:47.695Z,99879.69
2023-04-23T12:57:14.921Z,99887.56
2023-04-23T12:59:42.216Z,99883.03
2023-04-23T13:02:09.900Z,99889.53
2023-04-23T13:04:43.285Z,99880.03
2023-04-23T13:07:11.389Z,99872.44
2023-04-23T13:09:44.544Z,99880.22
2023-04-23T13:12:11.817Z,99881.03
2023-04-23T13:17:26.705Z,99886.34
2023-04-23T13:25:28.179Z,99876.66
2023-04-23T13:27:56.067Z,99880.53
2023-04-23T13:30:24.892Z,99878.81
2023-04-23T13:32:51.796Z,99873.75
2023-04-23T13:35:18.724Z,99875.38
2023-04-23T13:37:50.050Z,99869.94
2023-04-23T13:40:19.423Z,99867.28
2023-04-23T13:42:48.080Z,99864.56
2023-04-23T13:45:16.386Z,99854.81
2023-04-23T13:47:44.514Z,99862.88
2023-04-23T13:50:12.237Z,99867.41
2023-04-23T13:52:41.940Z,99858.16
2023-04-23T13:55:10.044Z,99861.22
2023-04-23T13:57:41.184Z,99857.19
2023-04-23T14:00:09.114Z,99838.09
2023-04-23T14:02:36.128Z,99852.75
2023-04-23T14:05:04.932Z,99847.66
2023-04-23T14:07:32.511Z,99853.59
2023-04-23T14:09:59.188Z,99852.59
2023-04-23T14:12:29.502Z,99850.31
2023-04-23T14:14:56.762Z,99845.75
2023-04-23T14:17:23.525Z,99833.25
2023-04-23T14:19:50.454Z,99836.53
2023-04-23T14:22:17.165Z,99831.97
2023-04-23T14:24:51.409Z,99840.78
2023-04-23T14:27:18.120Z,99829.09
2023-04-23T14:30:06.050Z,99821.88
2023-04-23T14:32:35.924Z,99829.84
2023-04-23T14:35:03.557Z,99818.16
2023-04-23T14:37:30.273Z,99816.66
2023-04-23T14:39:56.877Z,99815.75
2023-04-23T14:42:26.743Z,99818.84
2023-04-23T14:45:00.228Z,99807.25
2023-04-23T14:47:27.058Z,99808.72
2023-04-23T14:49:54.415Z,99807.59
2023-04-23T14:52:21.142Z,99804.91
2023-04-23T14:54:47.925Z,99803.47
2023-04-23T14:57:14.662Z,99807.50
2023-04-23T14:59:56.922Z,99810.19
2023-04-23T15:02:23.808Z,99801.16
2023-04-23T15:04:50.869Z,99802.59
2023-04-23T15:07:17.580Z,99792.66
2023-04-23T15:09:44.372Z,99790.94
2023-04-23T15:13:01.345Z,99785.25
2023-04-23T15:16:02.460Z,99789.28
2023-04-23T15:18:29.411Z,99787.59
2023-04-23T15:20:58.845Z,99777.91
2023-04-23T15:23:25.496Z,99771.78
2023-04-23T15:25:54.871Z,99773.22
2023-04-23T15:28:25.150Z,99772.78
2023-04-23T15:30:53.181Z,99772.88
2023-04-23T15:33:21.694Z,99776.34
2023-04-23T15:35:50.965Z,99781.63
2023-04-23T15:38:19.840Z,99773.84
2023-04-23T15:40:46.875Z,99774.31
2023-04-23T15:43:13.854Z,99771.81
2023-04-23T15:45:48.508Z,99772.47
2023-04-23T15:48:16.562Z,99768.72
2023-04-23T15:50:46.632Z,99762.19
2023-04-23T15:53:14.126Z,99752.94
2023-04-23T15:55:46.614Z,99757.06
2023-04-23T15:58:13.204Z,99745.81
2023-04-23T16:00:40.979Z,99753.25
2023-04-23T16:03:07.906Z,99747.78
2023-04-23T16:05:36.718Z,99744.97
2023-04-23T16:08:03.896Z,99741.28
2023-04-23T16:10:33.852Z,99747.44
2023-04-23T16:13:02.138Z,99737.53
2023-04-23T16:15:28.930Z,99728.66
2023-04-23T16:18:00.040Z,99725.50
2023-04-23T16:20:28.674Z,99736.00
2023-04-23T16:22:56.368Z,99718.34
2023-04-23T16:25:24.339Z,99727.59
2023-04-23T16:27:55.398Z,99721.28
2023-04-23T16:30:22.054Z,99715.16
2023-04-23T16:32:48.855Z,99711.56
2023-04-23T16:35:15.954Z,99703.81
2023-04-23T16:37:42.622Z,99710.97
2023-04-23T16:40:10.292Z,99706.19
2023-04-23T16:42:37.017Z,99709.22
2023-04-23T16:45:05.134Z,99700.88
2023-04-23T16:47:31.768Z,99698.53
2023-04-23T16:49:58.668Z,99695.97
2023-04-23T16:52:25.438Z,99695.09
2023-04-23T16:54:52.115Z,99699.06
2023-04-23T16:57:18.968Z,99686.97
2023-04-23T16:59:48.845Z,99689.06
2023-04-23T17:02:15.712Z,99698.63
2023-04-23T17:04:42.712Z,99701.41
2023-04-23T17:07:09.798Z,99706.50
2023-04-23T17:09:36.487Z,99704.53
2023-04-23T17:12:03.177Z,99713.03
2023-04-23T17:14:29.874Z,99708.22
2023-04-23T17:16:56.775Z,99704.44
2023-04-23T17:19:23.482Z,99708.81
2023-04-23T17:21:50.362Z,99710.00
2023-04-23T17:24:20.223Z,99704.72
2023-04-23T17:26:50.456Z,99695.88
2023-04-23T17:29:17.359Z,99693.34
2023-04-23T17:31:47.385Z,99700.09
2023-04-23T17:34:14.193Z,99691.84
2023-04-23T17:36:44.196Z,99692.22
2023-04-23T17:39:11.108Z,99684.81
2023-04-23T17:41:38.361Z,99680.19
2023-04-23T17:44:05.237Z,99676.59
2023-04-23T17:46:31.931Z,99686.34
2023-04-23T17:49:01.050Z,99680.88
2023-04-23T17:51:34.171Z,99673.09
2023-04-23T17:54:02.222Z,99674.94
2023-04-23T17:56:29.205Z,99679.53
2023-04-23T17:58:59.003Z,99681.34
2023-04-23T18:01:26.814Z,99670.47
2023-04-23T18:03:59.204Z,99660.63
2023-04-23T18:06:27.046Z,99660.50
2023-04-23T18:08:56.302Z,99658.16
2023-04-23T18:11:23.084Z,99662.31
2023-04-23T18:13:53.935Z,99662.03
2023-04-23T18:16:21.027Z,99669.91
2023-04-23T18:18:50.887Z,99665.63
2023-04-23T18:21:22.601Z,99668.94
2023-04-23T18:23:56.610Z,99671.56
2023-04-23T18:26:23.963Z,99663.19
2023-04-23T18:28:50.685Z,99661.06
2023-04-23T18:31:17.528Z,99666.19
2023-04-23T18:34:02.125Z,99662.19
2023-04-23T18:36:38.201Z,99670.75
2023-04-23T18:39:07.304Z,99666.19
2023-04-23T18:41:34.686Z,99667.59
2023-04-23T18:44:02.443Z,99662.63
2023-04-23T18:46:33.440Z,99675.59
2023-04-23T18:49:54.962Z,99677.38
2023-04-23T18:52:21.998Z,99677.81
2023-04-23T18:54:59.956Z,99675.75
2023-04-23T18:57:26.752Z,99683.28
2023-04-23T18:59:56.488Z,99683.09
2023-04-23T19:02:34.376Z,99673.75
2023-04-23T19:05:03.999Z,99680.84
2023-04-23T19:07:30.742Z,99682.06
2023-04-23T19:09:57.450Z,99682.06
2023-04-23T19:12:24.069Z,99687.03
2023-04-23T19:14:50.764Z,99673.03
2023-04-23T19:17:18.806Z,99671.31
2023-04-23T19:19:46.311Z,99676.41
2023-04-23T19:22:17.499Z,99666.19
2023-04-23T19:24:46.566Z,99675.34
2023-04-23T19:27:15.763Z,99664.03
2023-04-23T19:29:42.492Z,99662.00
2023-04-23T19:32:09.412Z,99664.03
2023-04-23T19:34:36.071Z,99654.63
2023-04-23T19:37:02.726Z,99654.84
2023-04-23T19:39:32.535Z,99648.78
2023-04-23T19:41:59.509Z,99647.75
2023-04-23T19:47:07.634Z,99642.91
2023-04-23T19:49:34.477Z,99635.31
2023-04-23T19:52:04.408Z,99642.78
2023-04-23T19:59:54.745Z,99621.94
2023-04-23T20:02:21.626Z,99624.16
2023-04-23T20:04:48.458Z,99613.75
2023-04-23T20:07:15.443Z,99616.63
2023-04-23T20:09:42.219Z,99615.72
2023-04-23T20:12:09.212Z,99621.69
2023-04-23T20:20:02.785Z,99605.56
2023-04-23T20:22:31.291Z,99611.09
2023-04-23T20:25:03.775Z,99602.88
2023-04-23T20:27:30.993Z,99609.84
2023-04-23T20:29:57.729Z,99601.03
2023-04-23T20:32:24.495Z,99599.91
2023-04-23T20:34:56.682Z,99591.69
2023-04-23T20:37:26.664Z,99588.44
2023-04-23T20:39:58.422Z,99586.00
2023-04-23T20:42:25.738Z,99580.31
2023-04-23T20:45:01.852Z,99572.94
2023-04-23T20:47:28.629Z,99577.22
2023-04-23T20:49:55.621Z,99578.59
2023-04-23T20:52:22.756Z,99573.47
2023-04-23T21:05:41.437Z,99563.81
2023-04-23T21:08:09.133Z,99560.38
2023-04-23T21:10:39.150Z,99560.94
2023-04-23T21:13:13.315Z,99557.47
2023-04-23T21:29:12.842Z,99531.19
2023-04-23T21:31:48.172Z,99527.56
2023-04-23T21:34:19.732Z,99525.97
2023-04-23T21:36:46.693Z,99523.88
2023-04-23T21:39:13.633Z,99525.44
2023-04-23T21:41:45.174Z,99521.16
2023-04-23T21:49:33.337Z,99511.59
2023-04-23T21:52:03.660Z,99506.22
2023-04-23T21:54:30.535Z,99489.00
2023-04-23T21:56:59.097Z,99503.16
2023-04-23T21:59:26.041Z,99483.25
2023-04-23T22:01:59.850Z,99480.34
2023-04-23T22:04:34.529Z,99476.63
2023-04-23T22:07:05.456Z,99470.75
2023-04-23T22:09:32.146Z,99466.38
2023-04-23T22:12:02.460Z,99448.50
2023-04-23T22:14:29.689Z,99451.00
2023-04-23T22:16:58.681Z,99458.09
2023-04-23T22:19:26.121Z,99452.13
2023-04-23T22:21:56.309Z,99457.41
2023-04-23T22:24:24.160Z,99453.50
2023-04-23T22:27:00.139Z,99451.31
2023-04-23T22:29:26.864Z,99455.31
2023-04-23T22:31:58.933Z,99450.56
2023-04-23T22:34:25.648Z,99450.72
2023-04-23T22:39:33.264Z,99439.09
2023-04-23T22:41:59.910Z,99420.56
2023-04-23T22:44:26.649Z,99423.28
2023-04-23T22:46:59.429Z,99411.63
2023-04-23T22:49:26.153Z,99403.97
2023-04-23T22:51:56.243Z,99392.78
2023-04-23T22:54:23.035Z,99390.06
2023-04-23T22:56:50.001Z,99396.66
2023-04-23T22:59:16.701Z,99390.47
2023-04-23T23:01:43.371Z,99384.50
2023-04-23T23:04:13.024Z,99384.91
2023-04-23T23:06:43.843Z,99382.91
2023-04-23T23:09:10.776Z,99381.09
2023-04-23T23:11:37.714Z,99374.47
2023-04-23T23:14:04.965Z,99372.41
2023-04-23T23:16:31.911Z,99364.50
2023-04-23T23:18:59.514Z,99361.59
2023-04-23T23:21:26.813Z,99356.25
2023-04-23T23:24:01.814Z,99346.31
2023-04-23T23:26:28.884Z,99346.91
2023-04-23T23:28:57.947Z,99351.94
2023-04-23T23:31:26.022Z,99346.53
2023-04-23T23:34:02.141Z,99344.22
2023-04-23T23:36:29.706Z,99348.41
2023-04-23T23:39:01.113Z,99349.47
2023-04-23T23:41:29.028Z,99334.28
2023-04-23T23:43:57.796Z,99333.06
2023-04-23T23:46:27.143Z,99332.00
2023-04-23T23:48:59.620Z,99318.31
2023-04-23T23:51:28.222Z,99312.69
2023-04-23T23:53:55.378Z,99307.91
2023-04-23T23:56:22.193Z,99308.50
2023-04-23T23:58:48.831Z,99305.78
